createdAt,value
2018-06-23T00:01:27.886Z,1.93
2018-06-23T00:03:55.290Z,2.20
2018-06-23T00:06:22.714Z,1.77
2018-06-23T00:08:50.143Z,2.23
2018-06-23T00:11:17.603Z,2.00
2018-06-23T00:13:45.022Z,1.90
2018-06-23T00:16:12.430Z,1.93
2018-06-23T00:18:39.866Z,2.10
2018-06-23T00:21:07.360Z,2.30
2018-06-23T00:23:34.790Z,2.00
2018-06-23T00:26:07.980Z,2.10
2018-06-23T00:28:35.394Z,2.20
2018-06-23T00:31:02.865Z,2.30
2018-06-23T00:33:30.245Z,2.50
2018-06-23T00:35:57.651Z,2.30
2018-06-23T00:38:25.057Z,2.50
2018-06-23T00:40:52.473Z,2.50
2018-06-23T00:43:19.906Z,3.03
2018-06-23T00:45:47.293Z,2.60
2018-06-23T00:48:14.758Z,2.40
2018-06-23T00:50:42.162Z,2.60
2018-06-23T00:53:09.582Z,2.53
2018-06-23T00:55:37.013Z,2.70
2018-06-23T00:58:04.446Z,2.90
2018-06-23T01:00:31.906Z,2.60
2018-06-23T01:02:59.317Z,2.70
2018-06-23T01:05:26.794Z,2.80
2018-06-23T01:07:54.170Z,2.97
2018-06-23T01:10:21.577Z,2.57
2018-06-23T01:12:48.971Z,2.50
2018-06-23T01:15:16.435Z,2.90
2018-06-23T01:17:43.870Z,3.23
2018-06-23T01:20:11.294Z,3.30
2018-06-23T01:22:38.881Z,3.33
2018-06-23T01:25:06.298Z,2.40
2018-06-23T01:27:33.721Z,2.60
2018-06-23T01:30:01.222Z,2.23
2018-06-23T01:32:28.670Z,2.47
2018-06-23T01:34:56.117Z,2.47
2018-06-23T01:37:23.500Z,2.73
2018-06-23T01:39:50.916Z,2.77
2018-06-23T01:42:18.348Z,3.23
2018-06-23T01:44:45.769Z,2.93
2018-06-23T01:47:13.169Z,3.03
2018-06-23T01:49:40.588Z,3.40
2018-06-23T01:52:07.999Z,3.50
2018-06-23T01:54:35.413Z,3.00
2018-06-23T01:57:02.922Z,2.70
2018-06-23T01:59:30.309Z,2.87
2018-06-23T02:01:57.724Z,2.97
2018-06-23T02:04:25.191Z,2.87
2018-06-23T02:06:52.608Z,3.47
2018-06-23T02:09:20.023Z,2.40
2018-06-23T02:11:47.489Z,2.40
2018-06-23T02:14:20.474Z,2.60
2018-06-23T02:16:53.597Z,2.47
2018-06-23T02:19:26.750Z,3.00
2018-06-23T02:21:59.928Z,2.30
2018-06-23T02:24:33.150Z,2.10
2018-06-23T02:27:06.381Z,6.23
2018-06-23T02:29:39.519Z,8.03
2018-06-23T02:32:12.769Z,2.47
2018-06-23T02:34:45.761Z,2.30
2018-06-23T02:37:13.214Z,2.33
2018-06-23T02:39:40.693Z,6.20
2018-06-23T02:42:08.125Z,3.47
2018-06-23T02:44:35.576Z,2.17
2018-06-23T02:47:03.046Z,3.27
2018-06-23T02:49:30.438Z,5.50
2018-06-23T02:51:57.842Z,3.63
2018-06-23T02:54:25.280Z,8.07
2018-06-23T02:56:52.700Z,7.53
2018-06-23T02:59:20.117Z,3.07
2018-06-23T03:01:48.327Z,4.40
2018-06-23T03:04:16.205Z,7.70
2018-06-23T03:06:43.595Z,2.33
2018-06-23T03:09:11.034Z,5.67
2018-06-23T03:11:38.433Z,1.97
2018-06-23T03:14:05.864Z,2.20
2018-06-23T03:16:33.298Z,1.80
2018-06-23T03:19:00.704Z,1.50
2018-06-23T03:21:28.125Z,1.53
2018-06-23T03:23:55.589Z,1.13
2018-06-23T03:26:22.986Z,1.37
2018-06-23T03:28:50.392Z,2.20
2018-06-23T03:31:17.817Z,4.33
2018-06-23T03:33:45.224Z,2.77
2018-06-23T03:36:12.638Z,1.57
2018-06-23T03:38:40.046Z,1.40
2018-06-23T03:41:07.449Z,1.77
2018-06-23T03:43:34.867Z,1.80
2018-06-23T03:46:02.302Z,1.77
2018-06-23T03:48:29.721Z,1.50
2018-06-23T03:50:57.144Z,1.40
2018-06-23T03:53:24.554Z,1.70
2018-06-23T03:55:52.001Z,1.60
2018-06-23T03:58:19.404Z,1.33
2018-06-23T04:00:52.421Z,1.20
2018-06-23T04:06:22.237Z,1.40
2018-06-23T04:09:22.239Z,1.33
2018-06-23T04:11:52.662Z,1.47
2018-06-23T04:18:30.252Z,1.57
2018-06-23T04:27:52.386Z,1.50
2018-06-23T04:30:26.811Z,1.60
2018-06-23T04:33:07.105Z,1.40
2018-06-23T04:36:26.283Z,1.30
2018-06-23T04:38:54.701Z,1.40
2018-06-23T04:41:31.216Z,1.60
2018-06-23T04:48:42.649Z,1.20
2018-06-23T04:51:10.757Z,1.20
2018-06-23T04:53:45.441Z,1.00
2018-06-23T04:56:14.396Z,1.07
2018-06-23T04:58:42.186Z,1.27
2018-06-23T05:01:34.497Z,1.13
2018-06-23T05:04:01.893Z,1.00
2018-06-23T05:06:29.321Z,1.23
2018-06-23T05:08:56.716Z,1.17
2018-06-23T05:11:24.208Z,1.10
2018-06-23T05:19:54.671Z,1.10
2018-06-23T05:25:35.589Z,1.00
2018-06-23T05:28:05.538Z,1.13
2018-06-23T05:30:51.912Z,1.00
2018-06-23T05:33:22.766Z,1.20
2018-06-23T05:36:05.053Z,0.90
2018-06-23T05:38:49.804Z,1.00
2018-06-23T05:41:17.498Z,0.90
2018-06-23T05:43:46.415Z,0.70
2018-06-23T05:46:13.958Z,0.90
2018-06-23T05:48:41.615Z,0.77
2018-06-23T05:51:13.427Z,0.97
2018-06-23T05:53:44.713Z,0.80
2018-06-23T05:56:29.972Z,0.70
2018-06-23T05:58:57.697Z,0.60
2018-06-23T06:01:25.481Z,0.60
2018-06-23T06:04:02.971Z,0.60
2018-06-23T06:06:38.670Z,0.77
2018-06-23T06:09:10.686Z,0.50
2018-06-23T06:11:50.560Z,0.50
2018-06-23T06:14:42.354Z,0.53
2018-06-23T06:18:18.526Z,0.50
2018-06-23T06:20:53.792Z,0.60
2018-06-23T06:23:21.616Z,0.50
2018-06-23T06:26:00.299Z,0.47
2018-06-23T06:28:31.452Z,0.60
2018-06-23T06:31:07.466Z,0.50
2018-06-23T06:33:36.341Z,0.60
2018-06-23T06:36:04.557Z,0.63
2018-06-23T06:39:45.673Z,0.40
2018-06-23T06:42:17.772Z,0.60
2018-06-23T06:48:06.613Z,0.60
2018-06-23T06:50:36.705Z,0.67
2018-06-23T06:53:04.296Z,0.60
2018-06-23T06:56:36.557Z,0.50
2018-06-23T06:59:04.041Z,0.60
2018-06-23T07:01:58.220Z,0.60
2018-06-23T07:04:27.234Z,0.37
2018-06-23T07:07:10.858Z,0.60
2018-06-23T07:09:38.348Z,0.70
2018-06-23T07:12:05.901Z,0.50
2018-06-23T07:14:33.313Z,0.50
2018-06-23T07:17:00.757Z,0.50
2018-06-23T07:19:28.246Z,0.37
2018-06-23T07:22:10.905Z,0.40
2018-06-23T07:24:39.669Z,0.50
2018-06-23T07:27:07.591Z,0.40
2018-06-23T07:32:39.665Z,0.60
2018-06-23T07:35:07.255Z,0.50
2018-06-23T07:37:34.617Z,0.83
2018-06-23T07:40:02.304Z,0.73
2018-06-23T07:42:30.700Z,0.47
2018-06-23T07:44:58.766Z,0.60
2018-06-23T07:47:27.541Z,0.60
2018-06-23T07:53:34.416Z,0.50
2018-06-23T07:56:06.145Z,0.47
2018-06-23T07:58:34.239Z,0.73
2018-06-23T08:01:02.583Z,0.70
2018-06-23T08:03:30.946Z,0.53
2018-06-23T08:06:07.274Z,0.57
2018-06-23T08:08:49.750Z,0.77
2018-06-23T08:11:19.961Z,0.60
2018-06-23T08:13:54.076Z,0.60
2018-06-23T08:16:21.808Z,0.70
2018-06-23T08:18:52.065Z,0.63
2018-06-23T08:24:10.918Z,0.80
2018-06-23T08:26:38.974Z,0.77
2018-06-23T08:29:24.528Z,0.70
2018-06-23T08:32:01.846Z,0.60
2018-06-23T08:34:29.632Z,0.67
2018-06-23T08:36:57.650Z,1.03
2018-06-23T08:45:28.986Z,0.43
2018-06-23T08:53:42.183Z,0.50
2018-06-23T08:56:12.269Z,0.73
2018-06-23T08:58:40.893Z,0.53
2018-06-23T09:01:16.849Z,0.63
2018-06-23T09:03:44.785Z,0.50
2018-06-23T09:06:16.276Z,0.60
2018-06-23T09:08:48.264Z,0.80
2018-06-23T09:11:17.735Z,0.70
2018-06-23T09:17:39.302Z,0.57
2018-06-23T09:20:17.911Z,0.83
2018-06-23T09:22:58.798Z,0.60
2018-06-23T09:25:43.803Z,0.50
2018-06-23T09:31:07.348Z,0.70
2018-06-23T09:33:37.287Z,0.60
2018-06-23T09:36:16.895Z,0.90
2018-06-23T09:38:46.464Z,0.53
2018-06-23T09:41:15.354Z,0.80
2018-06-23T09:43:43.632Z,0.57
2018-06-23T09:46:23.389Z,0.70
2018-06-23T09:51:31.248Z,0.93
2018-06-23T09:54:30.566Z,0.80
2018-06-23T09:56:58.686Z,0.80
2018-06-23T09:59:26.512Z,0.60
2018-06-23T10:02:03.994Z,0.60
2018-06-23T10:04:41.477Z,0.77
2018-06-23T10:07:09.036Z,0.90
2018-06-23T10:09:36.453Z,0.80
2018-06-23T10:12:03.901Z,0.83
2018-06-23T10:14:31.307Z,0.70
2018-06-23T10:16:59.375Z,0.70
2018-06-23T10:19:26.865Z,0.50
2018-06-23T10:21:54.269Z,0.67
2018-06-23T10:27:08.234Z,0.83
2018-06-23T10:29:35.681Z,0.80
2018-06-23T10:32:03.188Z,0.77
2018-06-23T10:34:37.672Z,0.70
2018-06-23T10:39:56.017Z,0.90
2018-06-23T10:44:36.072Z,0.70
2018-06-23T10:50:14.178Z,0.80
2018-06-23T10:52:42.967Z,0.70
2018-06-23T10:55:10.566Z,0.60
2018-06-23T10:57:42.181Z,0.70
2018-06-23T11:00:09.757Z,0.80
2018-06-23T11:02:37.188Z,0.73
2018-06-23T11:05:04.685Z,0.83
2018-06-23T11:07:42.815Z,0.80
2018-06-23T11:10:22.646Z,0.63
2018-06-23T11:12:50.306Z,0.63
2018-06-23T11:15:17.692Z,0.60
2018-06-23T11:17:45.141Z,0.70
2018-06-23T11:20:12.590Z,0.70
2018-06-23T11:22:40.093Z,1.10
2018-06-23T11:25:07.514Z,0.80
2018-06-23T11:27:34.934Z,0.83
2018-06-23T11:30:02.330Z,0.60
2018-06-23T11:32:29.744Z,0.80
2018-06-23T11:34:57.169Z,0.80
2018-06-23T11:37:24.565Z,0.83
2018-06-23T11:39:51.985Z,0.80
2018-06-23T11:42:19.366Z,0.63
2018-06-23T11:44:46.861Z,0.70
2018-06-23T11:47:24.302Z,0.80
2018-06-23T11:49:51.910Z,1.00
2018-06-23T11:52:19.397Z,0.70
2018-06-23T11:54:46.786Z,0.77
2018-06-23T11:57:14.386Z,0.80
2018-06-23T11:59:50.859Z,0.70
2018-06-23T12:02:20.169Z,0.70
2018-06-23T12:04:47.589Z,0.80
2018-06-23T12:07:15.128Z,1.03
2018-06-23T12:09:42.606Z,0.87
2018-06-23T12:12:10.518Z,0.70
2018-06-23T12:17:12.257Z,0.93
2018-06-23T12:19:53.504Z,0.80
2018-06-23T12:22:21.963Z,0.70
2018-06-23T12:24:49.563Z,0.90
2018-06-23T12:27:17.083Z,0.80
2018-06-23T12:29:45.731Z,0.70
2018-06-23T12:32:32.268Z,0.80
2018-06-23T12:35:13.952Z,0.93
2018-06-23T12:37:41.345Z,0.80
2018-06-23T12:40:09.037Z,0.90
2018-06-23T12:42:36.464Z,0.80
2018-06-23T12:45:04.056Z,1.00
2018-06-23T12:48:02.962Z,0.80
2018-06-23T12:51:17.931Z,0.80
2018-06-23T12:53:45.354Z,0.70
2018-06-23T12:56:12.737Z,0.80
2018-06-23T12:58:40.297Z,0.90
2018-06-23T13:01:14.909Z,0.77
2018-06-23T13:03:42.370Z,1.00
2018-06-23T13:06:33.645Z,0.77
2018-06-23T13:09:01.093Z,0.90
2018-06-23T13:11:28.482Z,0.90
2018-06-23T13:13:55.932Z,0.97
2018-06-23T13:16:23.389Z,1.10
2018-06-23T13:18:50.900Z,1.07
2018-06-23T13:21:18.448Z,0.90
2018-06-23T13:23:45.922Z,1.00
2018-06-23T13:26:13.300Z,0.80
2018-06-23T13:28:40.695Z,0.73
2018-06-23T13:31:08.107Z,0.80
2018-06-23T13:33:35.603Z,0.77
2018-06-23T13:36:03.088Z,0.70
2018-06-23T13:38:32.242Z,1.10
2018-06-23T13:41:03.353Z,0.97
2018-06-23T13:43:30.798Z,0.90
2018-06-23T13:45:58.466Z,0.90
2018-06-23T13:48:31.355Z,0.90
2018-06-23T13:51:20.249Z,0.90
2018-06-23T13:53:47.928Z,1.10
2018-06-23T13:56:15.334Z,0.90
2018-06-23T13:58:42.774Z,0.90
2018-06-23T14:01:10.196Z,0.90
2018-06-23T14:03:51.802Z,0.80
2018-06-23T14:06:26.575Z,0.73
2018-06-23T14:08:54.131Z,0.83
2018-06-23T14:11:21.625Z,0.70
2018-06-23T14:13:49.106Z,0.90
2018-06-23T14:18:55.650Z,0.80
2018-06-23T14:21:38.074Z,0.77
2018-06-23T14:24:15.247Z,0.53
2018-06-23T14:26:50.039Z,0.50
2018-06-23T14:29:31.542Z,0.80
2018-06-23T14:32:14.465Z,0.70
2018-06-23T14:35:12.734Z,0.70
2018-06-23T14:37:56.683Z,0.70
2018-06-23T14:41:29.225Z,0.67
2018-06-23T14:44:04.493Z,0.80
2018-06-23T14:46:36.281Z,0.73
2018-06-23T14:50:10.783Z,0.90
2018-06-23T14:52:42.452Z,0.83
2018-06-23T14:55:10.309Z,0.70
2018-06-23T15:03:57.595Z,0.90
2018-06-23T15:06:34.557Z,0.90
2018-06-23T15:10:19.824Z,0.90
2018-06-23T15:13:00.213Z,0.80
2018-06-23T15:15:44.367Z,1.10
2018-06-23T15:18:13.252Z,0.80
2018-06-23T15:20:41.416Z,0.83
2018-06-23T15:23:24.162Z,0.90
2018-06-23T15:26:39.950Z,1.13
2018-06-23T15:35:04.692Z,1.00
2018-06-23T15:37:42.536Z,0.90
2018-06-23T15:40:10.685Z,0.83
2018-06-23T15:42:38.958Z,0.90
2018-06-23T15:47:56.151Z,0.80
2018-06-23T15:50:29.209Z,1.10
2018-06-23T15:53:09.956Z,1.13
2018-06-23T15:57:59.980Z,0.97
2018-06-23T16:05:29.489Z,1.00
2018-06-23T16:08:04.087Z,0.80
2018-06-23T16:10:32.278Z,0.80
2018-06-23T16:13:00.630Z,0.80
2018-06-23T16:18:19.773Z,1.10
2018-06-23T16:21:21.084Z,1.27
2018-06-23T16:23:49.316Z,1.20
2018-06-23T16:26:24.981Z,1.00
2018-06-23T16:28:54.814Z,1.00
2018-06-23T16:31:37.414Z,1.00
2018-06-23T16:34:05.582Z,1.10
2018-06-23T16:36:33.243Z,1.10
2018-06-23T16:39:02.917Z,0.90
2018-06-23T16:41:33.677Z,1.10
2018-06-23T16:44:01.518Z,1.10
2018-06-23T16:46:28.904Z,1.10
2018-06-23T16:48:56.344Z,1.40
2018-06-23T16:51:30.418Z,1.00
2018-06-23T16:53:59.003Z,1.20
2018-06-23T16:56:28.135Z,0.90
2018-06-23T16:58:58.309Z,1.10
2018-06-23T17:01:29.494Z,0.90
2018-06-23T17:07:09.192Z,1.10
2018-06-23T17:09:50.964Z,1.00
2018-06-23T17:12:28.437Z,1.10
2018-06-23T17:14:57.833Z,1.00
2018-06-23T17:22:05.469Z,0.90
2018-06-23T17:24:32.890Z,1.00
2018-06-23T17:27:35.381Z,1.00
2018-06-23T17:30:18.193Z,0.93
2018-06-23T17:33:01.473Z,1.10
2018-06-23T17:35:28.892Z,1.07
2018-06-23T17:38:06.920Z,1.10
2018-06-23T17:40:37.208Z,1.03
2018-06-23T17:43:04.626Z,0.90
2018-06-23T17:45:32.067Z,0.97
2018-06-23T17:47:59.529Z,1.10
2018-06-23T17:53:12.867Z,1.00
2018-06-23T17:55:40.304Z,1.10
2018-06-23T17:58:07.900Z,1.00
2018-06-23T18:00:37.536Z,1.20
2018-06-23T18:03:05.113Z,0.90
2018-06-23T18:05:32.555Z,0.93
2018-06-23T18:10:55.901Z,0.87
2018-06-23T18:13:35.024Z,0.90
2018-06-23T18:16:05.584Z,0.90
2018-06-23T18:18:54.698Z,1.10
2018-06-23T18:21:24.232Z,1.00
2018-06-23T18:23:54.392Z,1.10
2018-06-23T18:26:23.615Z,0.80
2018-06-23T18:28:56.561Z,0.97
2018-06-23T18:31:33.195Z,1.10
2018-06-23T18:34:02.465Z,1.10
2018-06-23T18:36:31.539Z,0.90
2018-06-23T18:38:59.437Z,1.00
2018-06-23T18:41:27.686Z,0.90
2018-06-23T18:43:55.598Z,0.87
2018-06-23T18:46:24.364Z,1.00
2018-06-23T18:48:52.879Z,0.90
2018-06-23T19:07:44.496Z,0.90
2018-06-23T19:10:13.888Z,0.97
2018-06-23T19:12:49.168Z,0.90
2018-06-23T19:15:30.111Z,1.10
2018-06-23T19:18:06.700Z,1.20
2018-06-23T19:20:43.826Z,0.83
2018-06-23T19:23:12.544Z,0.90
2018-06-23T19:25:45.334Z,1.00
2018-06-23T19:28:13.259Z,0.90
2018-06-23T19:30:57.240Z,1.10
2018-06-23T19:33:35.182Z,1.00
2018-06-23T19:36:03.307Z,0.93
2018-06-23T19:38:33.425Z,1.00
2018-06-23T19:41:06.401Z,1.13
2018-06-23T19:43:37.743Z,1.00
2018-06-23T19:46:11.430Z,1.03
2018-06-23T19:48:41.538Z,0.90
2018-06-23T19:51:16.815Z,0.80
2018-06-23T19:53:45.294Z,0.90
2018-06-23T20:01:16.162Z,1.30
2018-06-23T20:03:47.754Z,0.80
2018-06-23T20:06:15.633Z,0.83
2018-06-23T20:08:44.843Z,1.10
2018-06-23T20:11:12.639Z,0.90
2018-06-23T20:13:40.584Z,0.93
2018-06-23T20:16:08.710Z,0.80
2018-06-23T20:18:36.377Z,1.00
2018-06-23T20:21:04.548Z,0.87
2018-06-23T20:23:32.366Z,1.00
2018-06-23T20:26:01.937Z,1.00
2018-06-23T20:28:29.541Z,1.00
2018-06-23T20:30:57.498Z,0.90
2018-06-23T20:33:25.403Z,1.00
2018-06-23T20:35:53.407Z,0.90
2018-06-23T20:38:27.890Z,0.97
2018-06-23T20:40:56.206Z,0.93
2018-06-23T20:43:26.297Z,0.90
2018-06-23T20:45:54.510Z,0.80
2018-06-23T20:48:34.572Z,0.73
2018-06-23T20:51:27.928Z,0.87
2018-06-23T20:54:06.012Z,0.70
2018-06-23T20:56:37.512Z,0.87
2018-06-23T21:02:10.422Z,1.00
2018-06-23T21:04:44.109Z,0.83
2018-06-23T21:07:13.080Z,1.00
2018-06-23T21:09:43.040Z,1.00
2018-06-23T21:12:17.971Z,0.80
2018-06-23T21:36:51.837Z,0.93
2018-06-23T22:05:13.226Z,0.83
2018-06-23T22:11:46.948Z,1.03
2018-06-23T22:14:29.183Z,0.97
2018-06-23T23:23:08.314Z,1.20
